Time;durP1;ratioP1;P1;durP2;ratioP2;P2;SDS_P1;SDS_P2;PMS_P1;PMS_P2;Temp;Humidity;BMP_temperature;BMP_pressure;BME280_temperature;BME280_humidity;BME280_pressure;Samples;Min_cycle;Max_cycle;Signal;HPM_P1;HPM_P2
2022/09/16 00:00:28;;;;;;;4.10;0.60;;;15.60;92.90;;;;;;5055272;28;20488;-72
2022/09/16 00:02:54;;;;;;;6.07;0.57;;;15.60;92.70;;;;;;5065309;28;20028;-72
2022/09/16 00:05:20;;;;;;;2.53;0.32;;;15.60;92.50;;;;;;5072943;28;20032;-72
2022/09/16 00:07:46;;;;;;;4.50;0.40;;;15.60;92.40;;;;;;5065433;28;20182;-72
2022/09/16 00:10:12;;;;;;;2.92;0.30;;;15.60;92.70;;;;;;5054723;28;20121;-72
2022/09/16 00:12:38;;;;;;;5.28;0.40;;;15.50;92.30;;;;;;5058404;28;20456;-72
2022/09/16 00:15:04;;;;;;;2.53;0.35;;;15.50;92.30;;;;;;5054902;28;20025;-72
2022/09/16 00:17:30;;;;;;;3.80;0.40;;;15.40;92.30;;;;;;5060589;28;20107;-72
2022/09/16 00:19:57;;;;;;;3.80;0.45;;;15.40;92.30;;;;;;5072373;28;20039;-72
2022/09/16 00:22:23;;;;;;;5.43;0.43;;;15.30;92.40;;;;;;5066934;28;20025;-72
2022/09/16 00:24:49;;;;;;;3.67;0.32;;;15.20;92.60;;;;;;5054843;28;20037;-72
2022/09/16 00:27:15;;;;;;;5.28;0.40;;;15.20;93.00;;;;;;5055010;28;20146;-72
2022/09/16 00:29:41;;;;;;;5.13;0.40;;;15.20;92.90;;;;;;5054389;28;20492;-72
2022/09/16 00:32:06;;;;;;;3.88;0.30;;;15.10;92.90;;;;;;5056483;28;20090;-72
2022/09/16 00:34:32;;;;;;;2.85;0.20;;;15.10;93.20;;;;;;5054560;28;20037;-72
2022/09/16 00:36:58;;;;;;;2.38;0.28;;;15.10;93.20;;;;;;5056044;28;20021;-72
2022/09/16 00:39:23;;;;;;;5.95;0.50;;;15.10;93.30;;;;;;5072556;28;20115;-72
2022/09/16 00:41:49;;;;;;;2.45;0.30;;;15.10;93.30;;;;;;5070616;28;20036;-72
2022/09/16 00:44:49;;;;;;;4.20;0.40;;;15.10;93.30;;;;;;5054060;28;20039;-72
2022/09/16 00:47:19;;;;;;;8.77;0.40;;;15.20;93.30;;;;;;5058330;28;20032;-72
2022/09/16 00:49:45;;;;;;;3.92;0.20;;;15.20;93.40;;;;;;5054871;28;20032;-72
2022/09/16 00:52:12;;;;;;;8.02;0.30;;;15.20;93.30;;;;;;5066839;28;20147;-72
2022/09/16 00:54:39;;;;;;;3.67;0.50;;;15.20;93.30;;;;;;5053970;28;20500;-72
2022/09/16 00:57:07;;;;;;;4.03;0.40;;;15.30;93.40;;;;;;5056893;28;20032;-72
2022/09/16 00:59:36;;;;;;;3.55;0.32;;;15.30;93.30;;;;;;5067888;28;20112;-72
2022/09/16 01:02:09;;;;;;;3.45;0.35;;;15.30;93.30;;;;;;5063118;28;20036;-72
2022/09/16 01:04:42;;;;;;;1.95;0.30;;;15.30;93.30;;;;;;5053864;28;20540;-72
2022/09/16 01:07:08;;;;;;;5.40;0.40;;;15.30;93.70;;;;;;5067919;28;20032;-72
2022/09/16 01:09:34;;;;;;;3.65;0.30;;;15.40;93.40;;;;;;5071325;28;20426;-72
2022/09/16 01:12:00;;;;;;;5.57;0.40;;;15.40;93.40;;;;;;5068771;28;20048;-72
2022/09/16 01:17:38;;;;;;;7.45;0.55;;;15.40;93.40;;;;;;5056070;28;20031;-72
2022/09/16 01:20:27;;;;;;;5.75;0.50;;;15.30;93.30;;;;;;5051509;28;20090;-72
2022/09/16 01:23:15;;;;;;;3.95;0.70;;;15.30;93.40;;;;;;5054572;28;20059;-72
2022/09/16 01:26:07;;;;;;;5.47;0.90;;;15.30;93.50;;;;;;5053676;28;20025;-72
2022/09/16 01:29:00;;;;;;;6.03;0.80;;;15.20;93.60;;;;;;5066648;28;20052;-72
2022/09/16 01:31:41;;;;;;;4.57;0.70;;;15.20;93.70;;;;;;5069719;28;20051;-72
2022/09/16 01:34:15;;;;;;;5.50;0.40;;;15.20;93.90;;;;;;5054792;28;20499;-72
2022/09/16 01:37:06;;;;;;;3.70;0.47;;;15.10;94.00;;;;;;5053497;28;20059;-72
2022/09/16 01:39:53;;;;;;;5.13;0.43;;;15.10;94.00;;;;;;5052982;28;20044;-72
2022/09/16 01:42:48;;;;;;;3.72;0.30;;;15.10;94.10;;;;;;5054932;28;20024;-72
2022/09/16 01:45:40;;;;;;;4.88;0.28;;;15.10;94.20;;;;;;5071138;28;20112;-72
2022/09/16 01:48:53;;;;;;;3.30;0.40;;;15.00;94.30;;;;;;5059347;28;20071;-72
2022/09/16 01:51:44;;;;;;;4.72;0.45;;;15.10;94.30;;;;;;5018275;28;20030;-72
2022/09/16 01:54:54;;;;;;;4.95;0.40;;;15.00;94.30;;;;;;5070752;28;20078;-72
2022/09/16 01:57:27;;;;;;;3.75;0.30;;;15.00;94.30;;;;;;5058120;28;20037;-72
2022/09/16 02:00:05;;;;;;;4.38;0.38;;;15.00;94.50;;;;;;5059426;28;20496;-72
2022/09/16 02:02:38;;;;;;;6.55;0.60;;;15.00;94.40;;;;;;5064974;28;20025;-72
2022/09/16 02:05:06;;;;;;;;;;;15.00;94.40;;;;;;5053087;28;20496;-72
2022/09/16 02:07:35;;;;;;;6.20;0.50;;;15.00;94.50;;;;;;5059266;28;19931;-72
2022/09/16 02:10:12;;;;;;;5.60;0.50;;;15.00;94.50;;;;;;5051386;28;20484;-72
2022/09/16 02:12:41;;;;;;;5.75;0.45;;;15.00;94.50;;;;;;5059704;28;20054;-72
2022/09/16 02:15:10;;;;;;;6.88;0.45;;;14.90;94.60;;;;;;5070757;28;20048;-72
2022/09/16 02:17:43;;;;;;;7.53;0.77;;;14.90;94.60;;;;;;5064146;28;20431;-72
2022/09/16 02:20:11;;;;;;;;;;;14.90;94.80;;;;;;5054183;28;20044;-72
2022/09/16 02:22:59;;;;;;;3.00;0.32;;;14.80;94.90;;;;;;5058972;28;20282;-72
2022/09/16 02:25:28;;;;;;;5.97;1.20;;;14.70;94.90;;;;;;5070758;28;20037;-72
2022/09/16 02:27:54;;;;;;;7.18;0.65;;;14.70;95.00;;;;;;5061998;28;20396;-72
2022/09/16 02:30:22;;;;;;;3.80;0.50;;;14.60;95.00;;;;;;5060218;28;20021;-72
2022/09/16 02:33:05;;;;;;;5.50;0.55;;;14.60;95.20;;;;;;5062011;28;20035;-72
2022/09/16 02:35:33;;;;;;;;;;;14.60;95.30;;;;;;5071285;28;20033;-72
2022/09/16 02:38:03;;;;;;;3.40;0.60;;;14.60;95.20;;;;;;5061070;28;19917;-72
2022/09/16 02:40:36;;;;;;;4.95;0.40;;;14.60;95.30;;;;;;5053742;28;20037;-72
2022/09/16 02:43:01;;;;;;;;;;;14.60;95.20;;;;;;5063132;28;20048;-72
2022/09/16 02:45:55;;;;;;;5.15;0.50;;;14.60;95.20;;;;;;5049611;28;19934;-72
2022/09/16 02:48:26;;;;;;;4.60;0.40;;;14.60;95.10;;;;;;5052758;28;20071;-72
2022/09/16 02:51:04;;;;;;;4.70;0.57;;;14.70;95.10;;;;;;5059258;28;20095;-72
2022/09/16 02:53:41;;;;;;;5.40;0.50;;;14.60;95.10;;;;;;5064991;28;20120;-72
2022/09/16 02:56:18;;;;;;;4.53;0.55;;;14.60;95.00;;;;;;5070175;28;20491;-72
2022/09/16 02:58:44;;;;;;;2.90;0.30;;;14.60;95.10;;;;;;5065820;28;20024;-72
2022/09/16 03:01:12;;;;;;;3.30;0.30;;;14.60;95.10;;;;;;5065623;28;20135;-71
2022/09/16 03:03:37;;;;;;;6.13;0.80;;;14.60;95.10;;;;;;5064060;28;20107;-72
2022/09/16 03:06:11;;;;;;;3.42;0.35;;;14.60;95.10;;;;;;5052504;28;20112;-72
2022/09/16 03:08:37;;;;;;;6.50;0.50;;;14.60;95.00;;;;;;5066970;28;20098;-72
2022/09/16 03:11:12;;;;;;;5.30;0.30;;;14.50;95.10;;;;;;5070131;28;20040;-72
2022/09/16 03:13:57;;;;;;;3.58;0.50;;;14.50;95.10;;;;;;5065015;28;20039;-72
2022/09/16 03:16:40;;;;;;;3.45;0.30;;;14.50;95.20;;;;;;5059186;28;20021;-71
2022/09/16 03:19:35;;;;;;;4.50;0.40;;;14.50;95.20;;;;;;5055912;28;20036;-71
2022/09/16 03:22:19;;;;;;;4.72;0.35;;;14.50;95.20;;;;;;5053960;28;20128;-71
2022/09/16 03:25:09;;;;;;;4.13;0.30;;;14.50;95.30;;;;;;5060538;28;20024;-71
2022/09/16 03:27:44;;;;;;;2.30;0.43;;;14.50;95.20;;;;;;5066885;28;20110;-71
2022/09/16 03:30:10;;;;;;;3.88;0.40;;;14.50;95.20;;;;;;5054304;28;20029;-71
2022/09/16 03:32:53;;;;;;;2.10;0.20;;;14.60;95.20;;;;;;5062823;28;20029;-71
2022/09/16 03:35:26;;;;;;;4.20;0.50;;;14.60;95.20;;;;;;5052124;28;20025;-71
2022/09/16 03:37:54;;;;;;;2.42;0.20;;;14.60;95.10;;;;;;5063601;28;20032;-72
2022/09/16 03:40:21;;;;;;;2.53;0.13;;;14.60;95.10;;;;;;5073720;28;20037;-72
2022/09/16 03:42:46;;;;;;;4.10;0.22;;;14.60;95.00;;;;;;5065495;28;20064;-72
2022/09/16 03:45:17;;;;;;;5.00;0.38;;;14.60;95.00;;;;;;5060903;28;20048;-72
2022/09/16 03:47:44;;;;;;;1.75;0.20;;;14.60;94.90;;;;;;5062773;28;20031;-72
2022/09/16 03:50:10;;;;;;;3.80;0.40;;;14.50;95.00;;;;;;5065913;28;20056;-72
2022/09/16 03:52:36;;;;;;;7.28;0.40;;;14.50;95.30;;;;;;5061994;28;20070;-72
2022/09/16 03:55:01;;;;;;;3.88;0.22;;;14.40;95.70;;;;;;5072368;28;20029;-73
2022/09/16 03:57:29;;;;;;;7.93;0.50;;;14.40;95.50;;;;;;5067334;28;20029;-73
2022/09/16 03:59:54;;;;;;;3.05;0.40;;;14.40;95.50;;;;;;5059246;28;20085;-73
2022/09/16 04:02:20;;;;;;;7.20;0.40;;;14.50;95.60;;;;;;5069787;28;20029;-73
2022/09/16 04:04:46;;;;;;;3.50;0.30;;;14.40;95.50;;;;;;5069696;28;20116;-72
2022/09/16 04:07:11;;;;;;;4.50;0.60;;;14.50;95.60;;;;;;5060480;28;20017;-72
2022/09/16 04:09:37;;;;;;;6.13;0.57;;;14.50;95.70;;;;;;5072603;28;20024;-72
2022/09/16 04:12:06;;;;;;;8.43;1.45;;;14.60;95.70;;;;;;5060955;28;20066;-72
2022/09/16 04:14:32;;;;;;;2.85;0.50;;;14.50;95.70;;;;;;5071703;28;20032;-73
2022/09/16 04:16:58;;;;;;;5.15;0.45;;;14.50;95.70;;;;;;5060811;28;20025;-72
2022/09/16 04:19:23;;;;;;;5.55;0.40;;;14.50;95.80;;;;;;5055598;28;20029;-73
2022/09/16 04:21:49;;;;;;;4.95;0.52;;;14.50;95.80;;;;;;5071922;28;20460;-73
2022/09/16 04:24:15;;;;;;;8.05;0.50;;;14.40;95.90;;;;;;5055917;28;20100;-74
2022/09/16 04:26:41;;;;;;;7.95;0.50;;;14.40;96.00;;;;;;5064544;28;20383;-74
2022/09/16 04:29:07;;;;;;;6.85;0.57;;;14.40;96.10;;;;;;5070172;28;20131;-73
2022/09/16 04:31:33;;;;;;;5.43;0.40;;;14.30;96.30;;;;;;5072877;28;20068;-73
2022/09/16 04:34:00;;;;;;;4.88;0.50;;;14.20;96.30;;;;;;5056460;28;20029;-73
2022/09/16 04:36:26;;;;;;;4.55;0.35;;;14.20;96.40;;;;;;5054534;28;20037;-73
2022/09/16 04:38:52;;;;;;;4.72;0.88;;;14.20;96.40;;;;;;5069938;28;20376;-73
2022/09/16 04:41:23;;;;;;;4.78;0.60;;;14.20;96.40;;;;;;5072368;28;20051;-73
2022/09/16 04:43:54;;;;;;;5.50;0.40;;;14.20;96.40;;;;;;5060188;28;20021;-73
2022/09/16 04:46:20;;;;;;;5.20;0.50;;;14.20;96.30;;;;;;5054145;28;20079;-74
2022/09/16 04:48:51;;;;;;;3.08;0.38;;;14.20;96.40;;;;;;5069534;28;20029;-73
2022/09/16 04:51:18;;;;;;;4.68;0.22;;;14.20;96.50;;;;;;5071891;28;20028;-73
2022/09/16 04:53:45;;;;;;;3.00;0.20;;;14.30;96.00;;;;;;5049590;28;20128;-74
2022/09/16 04:56:17;;;;;;;9.13;0.40;;;14.30;95.90;;;;;;5063284;28;20103;-73
2022/09/16 04:58:44;;;;;;;4.22;0.30;;;14.40;95.80;;;;;;5064226;28;20024;-74
2022/09/16 05:01:12;;;;;;;4.25;0.30;;;14.40;95.70;;;;;;5071491;28;20434;-73
2022/09/16 05:03:40;;;;;;;2.85;0.30;;;14.30;95.70;;;;;;5071090;28;20024;-73
2022/09/16 05:06:10;;;;;;;2.30;0.20;;;14.30;95.70;;;;;;5057065;28;20036;-73
2022/09/16 05:08:36;;;;;;;2.45;0.35;;;14.30;95.70;;;;;;5065890;28;20017;-74
2022/09/16 05:11:08;;;;;;;2.03;0.20;;;14.30;95.70;;;;;;5055176;28;20074;-73
2022/09/16 05:13:34;;;;;;;4.47;0.35;;;14.30;95.80;;;;;;5054619;28;20021;-73
2022/09/16 05:16:13;;;;;;;5.30;0.35;;;14.30;95.80;;;;;;5053739;28;20029;-73
2022/09/16 05:18:40;;;;;;;3.15;0.40;;;14.20;95.80;;;;;;5067930;28;20032;-73
2022/09/16 05:21:09;;;;;;;3.60;0.30;;;14.30;95.80;;;;;;5070152;28;20115;-73
2022/09/16 05:23:36;;;;;;;1.80;0.20;;;14.30;95.80;;;;;;5054713;28;20078;-73
2022/09/16 05:26:20;;;;;;;3.22;0.28;;;14.30;95.70;;;;;;5058310;28;20033;-76
2022/09/16 05:28:46;;;;;;;6.38;0.40;;;14.20;95.60;;;;;;5055993;28;20048;-75
2022/09/16 05:31:19;;;;;;;2.05;0.32;;;14.30;95.80;;;;;;5053939;28;20025;-76
2022/09/16 05:33:56;;;;;;;4.57;0.32;;;14.30;95.70;;;;;;5065536;28;20047;-75
2022/09/16 05:36:23;;;;;;;5.93;0.30;;;14.30;95.70;;;;;;5052087;28;20045;-75
2022/09/16 05:38:52;;;;;;;3.75;0.52;;;14.40;95.70;;;;;;5068424;28;20048;-76
2022/09/16 05:41:18;;;;;;;4.07;0.40;;;14.40;95.70;;;;;;5070243;28;20039;-76
2022/09/16 05:43:43;;;;;;;2.33;0.25;;;14.50;95.60;;;;;;5063261;28;20020;-76
2022/09/16 05:46:16;;;;;;;2.13;0.22;;;14.50;95.50;;;;;;5071228;28;20024;-76
2022/09/16 05:48:42;;;;;;;5.15;0.30;;;14.50;95.50;;;;;;5056476;28;20108;-75
2022/09/16 05:51:10;;;;;;;3.75;0.30;;;14.50;95.30;;;;;;5057831;28;20108;-77
2022/09/16 05:53:35;;;;;;;2.85;0.20;;;14.50;95.30;;;;;;5063951;28;20035;-75
2022/09/16 05:56:07;;;;;;;3.22;0.15;;;14.60;95.10;;;;;;5070758;28;20032;-75
2022/09/16 05:58:35;;;;;;;3.40;0.43;;;14.60;95.20;;;;;;5061258;28;20108;-76
2022/09/16 06:01:09;;;;;;;2.78;0.20;;;14.70;94.90;;;;;;5053855;28;20033;-76
2022/09/16 06:03:36;;;;;;;3.63;0.32;;;14.70;94.90;;;;;;5066448;28;20031;-76
2022/09/16 06:06:06;;;;;;;3.22;0.20;;;14.70;94.70;;;;;;5070283;28;20048;-78
2022/09/16 06:08:33;;;;;;;3.85;0.63;;;14.70;94.70;;;;;;5063050;28;20016;-79
2022/09/16 06:11:04;;;;;;;4.95;1.05;;;14.70;94.50;;;;;;5053944;28;20111;-78
2022/09/16 06:13:30;;;;;;;2.55;0.30;;;14.80;94.40;;;;;;5065596;28;20024;-79
2022/09/16 06:15:56;;;;;;;4.75;0.50;;;15.00;96.30;;;;;;5070605;28;20543;-79
2022/09/16 06:18:24;;;;;;;3.75;0.20;;;15.60;97.50;;;;;;5062929;28;20060;-82
2022/09/16 06:20:50;;;;;;;4.25;0.20;;;16.40;96.00;;;;;;5069787;28;20036;-81
2022/09/16 06:23:16;;;;;;;2.72;0.30;;;16.80;94.20;;;;;;5067917;28;20499;-81
2022/09/16 06:25:42;;;;;;;2.50;0.20;;;17.20;93.10;;;;;;5069823;28;20119;-77
2022/09/16 06:28:10;;;;;;;3.22;0.30;;;17.30;91.50;;;;;;5059868;28;20124;-77
2022/09/16 06:30:36;;;;;;;2.75;0.30;;;17.00;90.60;;;;;;5053710;28;20412;-76
2022/09/16 06:33:02;;;;;;;4.32;0.30;;;16.70;91.30;;;;;;5058940;28;20052;-77
2022/09/16 06:35:27;;;;;;;4.25;0.20;;;16.60;91.70;;;;;;5070330;28;20053;-77
2022/09/16 06:37:53;;;;;;;3.40;0.30;;;16.60;91.80;;;;;;5058242;28;20028;-77
2022/09/16 06:40:19;;;;;;;4.88;0.28;;;16.50;91.40;;;;;;5069740;28;20391;-81
2022/09/16 06:42:45;;;;;;;3.17;0.30;;;16.40;91.40;;;;;;5069227;28;20021;-78
2022/09/16 06:45:11;;;;;;;4.40;0.30;;;16.30;91.40;;;;;;5067656;28;20530;-78
2022/09/16 06:47:36;;;;;;;2.20;0.20;;;16.20;91.80;;;;;;5063863;28;20044;-75
2022/09/16 06:50:04;;;;;;;4.35;0.35;;;16.10;91.50;;;;;;5055808;28;20024;-75
2022/09/16 06:52:30;;;;;;;2.05;0.20;;;15.90;91.70;;;;;;5065198;28;20365;-76
2022/09/16 06:54:56;;;;;;;3.90;0.40;;;15.70;91.90;;;;;;5057071;28;20119;-75
2022/09/16 06:57:22;;;;;;;7.07;0.40;;;15.60;92.20;;;;;;5069581;28;20512;-77
2022/09/16 06:59:51;;;;;;;3.78;0.35;;;15.40;92.50;;;;;;5054711;28;20099;-78
2022/09/16 07:02:18;;;;;;;3.78;0.35;;;15.30;92.90;;;;;;5067928;28;20025;-76
2022/09/16 07:04:44;;;;;;;4.22;0.30;;;15.20;93.10;;;;;;5062199;28;20036;-76
2022/09/16 07:07:10;;;;;;;1.98;0.20;;;15.20;93.50;;;;;;5061141;28;20028;-76
2022/09/16 07:09:36;;;;;;;2.33;0.40;;;15.20;93.50;;;;;;5056088;28;20472;-76
2022/09/16 07:12:02;;;;;;;2.97;0.30;;;15.10;93.70;;;;;;5055823;28;20032;-76
2022/09/16 07:14:28;;;;;;;4.22;0.20;;;15.10;93.80;;;;;;5056346;28;20159;-75
2022/09/16 07:16:54;;;;;;;1.73;0.20;;;15.20;94.00;;;;;;5056104;28;20108;-76
2022/09/16 07:19:19;;;;;;;4.38;0.50;;;15.30;93.90;;;;;;5055981;28;20060;-76
2022/09/16 07:21:46;;;;;;;4.85;0.50;;;15.40;93.80;;;;;;5055698;28;20037;-76
2022/09/16 07:24:13;;;;;;;6.18;0.30;;;15.40;93.60;;;;;;5056245;28;20017;-76
2022/09/16 07:26:39;;;;;;;4.82;0.43;;;15.40;93.50;;;;;;5055889;28;20052;-76
2022/09/16 07:29:08;;;;;;;6.90;0.28;;;15.40;93.40;;;;;;5055445;28;20075;-77
2022/09/16 07:31:36;;;;;;;2.67;0.30;;;15.40;93.20;;;;;;5056067;28;20087;-77
2022/09/16 07:34:05;;;;;;;3.70;1.00;;;15.30;93.00;;;;;;5056072;28;20104;-76
2022/09/16 07:36:37;;;;;;;2.88;0.35;;;15.30;93.20;;;;;;5055556;28;20049;-77
2022/09/16 07:39:03;;;;;;;6.35;0.75;;;15.30;93.20;;;;;;5055731;28;20029;-76
2022/09/16 07:41:32;;;;;;;3.50;0.40;;;15.20;93.20;;;;;;5055474;28;20045;-78
2022/09/16 07:43:59;;;;;;;5.63;0.40;;;15.20;93.30;;;;;;5055697;28;20017;-77
2022/09/16 07:46:27;;;;;;;3.70;0.40;;;15.20;93.40;;;;;;5055326;28;20108;-77
2022/09/16 07:48:53;;;;;;;3.03;0.28;;;15.30;93.40;;;;;;5055169;28;20049;-75
2022/09/16 07:51:21;;;;;;;3.60;0.38;;;15.30;93.40;;;;;;5055567;28;20045;-77
2022/09/16 07:53:48;;;;;;;4.13;0.40;;;15.40;93.30;;;;;;5058478;28;20480;-76
2022/09/16 07:56:16;;;;;;;4.38;0.30;;;15.40;93.00;;;;;;5062097;28;20037;-75
2022/09/16 07:58:44;;;;;;;3.00;0.40;;;15.40;92.80;;;;;;5056075;28;20033;-74
2022/09/16 08:01:10;;;;;;;5.70;0.30;;;15.40;92.60;;;;;;5064227;28;20037;-75
2022/09/16 08:03:38;;;;;;;5.82;0.40;;;15.40;92.50;;;;;;5075503;28;20103;-75
2022/09/16 08:06:06;;;;;;;8.13;0.30;;;15.40;92.60;;;;;;5075212;28;20020;-74
2022/09/16 08:08:33;;;;;;;5.45;0.32;;;15.40;92.10;;;;;;5075431;28;20070;-74
2022/09/16 08:11:00;;;;;;;2.42;0.47;;;15.50;92.10;;;;;;5075103;28;20495;-73
2022/09/16 08:13:28;;;;;;;4.40;0.52;;;15.50;91.50;;;;;;5065097;28;20052;-73
2022/09/16 08:15:54;;;;;;;2.75;0.20;;;15.60;91.00;;;;;;5055198;28;20021;-73
2022/09/16 08:18:20;;;;;;;2.85;0.30;;;15.70;90.60;;;;;;5055133;28;20029;-75
2022/09/16 08:20:46;;;;;;;6.50;0.95;;;15.90;90.70;;;;;;5054571;28;20388;-75
2022/09/16 08:23:13;;;;;;;4.63;0.17;;;16.00;90.50;;;;;;5061294;28;20028;-75
2022/09/16 08:25:39;;;;;;;3.70;0.40;;;16.00;90.40;;;;;;5063002;28;20033;-74
2022/09/16 08:28:04;;;;;;;3.50;0.40;;;16.20;90.50;;;;;;5054402;28;20033;-74
2022/09/16 08:30:30;;;;;;;3.22;0.47;;;16.20;90.40;;;;;;5064781;28;20074;-74
2022/09/16 08:32:59;;;;;;;3.72;0.30;;;16.20;90.40;;;;;;5054923;28;20052;-74
2022/09/16 08:35:25;;;;;;;4.93;0.20;;;16.20;90.10;;;;;;5054941;28;20036;-73
2022/09/16 08:37:51;;;;;;;3.45;0.20;;;16.30;89.60;;;;;;5054225;28;20101;-73
2022/09/16 08:40:22;;;;;;;4.43;0.22;;;16.30;88.80;;;;;;5054759;28;20526;-75
2022/09/16 08:43:03;;;;;;;5.93;0.20;;;16.40;88.10;;;;;;5054738;28;20061;-74
2022/09/16 08:45:50;;;;;;;4.78;0.30;;;16.50;88.50;;;;;;5054377;28;20618;-74
2022/09/16 08:48:48;;;;;;;4.47;0.50;;;16.50;88.10;;;;;;5054035;28;20064;-77
2022/09/16 08:51:18;;;;;;;5.78;0.40;;;16.50;88.10;;;;;;5053058;28;20072;-77
2022/09/16 08:54:03;;;;;;;2.47;0.10;;;16.70;88.50;;;;;;5054328;28;20028;-76
2022/09/16 08:56:33;;;;;;;2.83;0.20;;;16.80;87.10;;;;;;5054169;28;20100;-73
2022/09/16 08:59:02;;;;;;;3.70;0.25;;;16.90;87.20;;;;;;5053979;28;20029;-73
2022/09/16 09:01:36;;;;;;;4.32;0.43;;;17.10;86.60;;;;;;5057330;28;20037;-74
2022/09/16 09:04:02;;;;;;;3.03;0.25;;;17.10;85.80;;;;;;5059029;28;20669;-73
2022/09/16 09:07:10;;;;;;;2.95;0.17;;;17.00;84.70;;;;;;5060301;28;20025;-75
2022/09/16 09:09:51;;;;;;;4.25;0.20;;;16.90;84.90;;;;;;5047316;28;20067;-75
2022/09/16 09:12:43;;;;;;;4.28;0.20;;;16.80;84.10;;;;;;5066108;28;20024;-74
2022/09/16 09:15:51;;;;;;;4.18;0.20;;;16.80;83.40;;;;;;5044098;28;20742;-74
2022/09/16 09:18:22;;;;;;;2.97;0.50;;;16.80;81.20;;;;;;5051018;28;20044;-73
2022/09/16 09:21:26;;;;;;;3.38;0.20;;;16.80;80.90;;;;;;5061097;28;20491;-76
2022/09/16 09:24:30;;;;;;;3.42;0.32;;;17.00;80.30;;;;;;5057411;28;20410;-76
2022/09/16 09:27:21;;;;;;;2.75;0.20;;;17.20;79.60;;;;;;5066068;28;20583;-76
2022/09/16 09:30:10;;;;;;;2.63;0.10;;;17.20;78.60;;;;;;5064720;28;20086;-74
2022/09/16 09:33:26;;;;;;;1.83;0.20;;;17.30;76.60;;;;;;5065931;28;20033;-74
2022/09/16 09:36:18;;;;;;;1.25;0.10;;;17.40;76.10;;;;;;5035785;28;20040;-73
2022/09/16 09:39:19;;;;;;;1.05;0.10;;;17.60;76.00;;;;;;5058305;28;20527;-73
2022/09/16 09:41:47;;;;;;;1.73;0.20;;;17.80;75.60;;;;;;5052542;28;20041;-73
2022/09/16 09:44:38;;;;;;;2.08;0.20;;;18.00;75.60;;;;;;5054145;28;20337;-73
2022/09/16 09:47:11;;;;;;;2.58;0.20;;;18.10;74.10;;;;;;5068358;28;20056;-73
2022/09/16 09:49:46;;;;;;;1.35;0.10;;;18.10;74.00;;;;;;5059756;28;20054;-73
2022/09/16 09:52:26;;;;;;;1.60;0.10;;;18.20;73.40;;;;;;5054517;28;20031;-73
2022/09/16 09:54:52;;;;;;;2.38;0.10;;;18.20;71.20;;;;;;5068204;28;20569;-73
2022/09/16 09:57:33;;;;;;;0.45;0.10;;;18.30;71.90;;;;;;5064477;28;20065;-73
2022/09/16 10:00:16;;;;;;;3.15;0.30;;;18.40;71.60;;;;;;5053997;28;20444;-73
2022/09/16 10:02:43;;;;;;;1.35;0.10;;;18.40;71.40;;;;;;5060435;28;20024;-73
2022/09/16 10:05:28;;;;;;;2.40;0.20;;;18.60;72.20;;;;;;5054297;28;20366;-74
2022/09/16 10:07:59;;;;;;;3.95;0.40;;;18.80;71.20;;;;;;5061494;28;20024;-74
2022/09/16 10:10:28;;;;;;;2.67;0.20;;;18.80;69.90;;;;;;5057832;28;20499;-74
2022/09/16 10:12:54;;;;;;;1.58;0.10;;;18.80;70.30;;;;;;5061853;28;20039;-74
2022/09/16 10:15:22;;;;;;;1.70;0.10;;;18.60;70.30;;;;;;5052468;28;20021;-74
2022/09/16 10:17:50;;;;;;;2.03;0.20;;;18.60;71.20;;;;;;5060780;28;20130;-74
2022/09/16 10:20:33;;;;;;;1.15;0.10;;;18.70;72.00;;;;;;5069396;28;20043;-73
2022/09/16 10:23:03;;;;;;;4.00;0.13;;;18.90;71.90;;;;;;5065376;28;20032;-73
2022/09/16 10:25:31;;;;;;;1.85;0.03;;;18.90;69.70;;;;;;5062766;28;20025;-73
2022/09/16 10:28:01;;;;;;;4.10;0.20;;;18.80;67.30;;;;;;5071277;28;20506;-75
2022/09/16 10:30:31;;;;;;;1.55;0.10;;;18.80;66.30;;;;;;5074537;28;20040;-74
2022/09/16 10:33:06;;;;;;;3.05;0.20;;;18.80;66.10;;;;;;5066122;28;20431;-74
2022/09/16 10:35:37;;;;;;;1.90;0.20;;;18.70;67.30;;;;;;5066997;28;20033;-75
2022/09/16 10:38:07;;;;;;;1.27;0.10;;;18.90;68.50;;;;;;5062846;28;20020;-73
2022/09/16 10:40:33;;;;;;;1.10;0.10;;;19.10;67.20;;;;;;5056474;28;20033;-72
2022/09/16 10:43:05;;;;;;;2.20;0.20;;;19.10;66.10;;;;;;5058590;28;20423;-74
2022/09/16 10:45:43;;;;;;;1.65;0.20;;;19.00;66.70;;;;;;5074252;28;20032;-78
2022/09/16 10:48:15;;;;;;;2.42;0.22;;;19.10;67.60;;;;;;5063645;28;20033;-77
2022/09/16 10:51:01;;;;;;;1.70;0.20;;;19.10;66.90;;;;;;5057308;28;20025;-77
2022/09/16 10:53:35;;;;;;;4.20;0.20;;;19.00;65.80;;;;;;5062098;28;20374;-77
2022/09/16 10:56:15;;;;;;;2.40;0.30;;;18.90;66.60;;;;;;5056632;28;20083;-76
2022/09/16 10:58:40;;;;;;;3.33;0.20;;;18.90;65.20;;;;;;5066187;28;20040;-76
2022/09/16 11:01:12;;;;;;;1.95;0.20;;;19.00;66.50;;;;;;5064325;28;20040;-76
2022/09/16 11:03:46;;;;;;;2.22;0.30;;;19.20;65.00;;;;;;5060738;28;20047;-77
2022/09/16 11:06:42;;;;;;;2.60;0.30;;;19.40;65.20;;;;;;5054516;28;20087;-77
2022/09/16 11:09:29;;;;;;;2.00;0.20;;;19.40;66.10;;;;;;5052257;28;20441;-77
2022/09/16 11:12:28;;;;;;;4.10;0.30;;;19.30;65.80;;;;;;5058508;28;20480;-77
2022/09/16 11:15:25;;;;;;;4.50;0.30;;;19.00;66.40;;;;;;5071435;28;20029;-77
2022/09/16 11:18:16;;;;;;;1.77;0.10;;;18.70;66.50;;;;;;5065851;28;20021;-77
2022/09/16 11:21:08;;;;;;;2.08;0.20;;;18.50;67.10;;;;;;5058635;28;20044;-77
2022/09/16 11:24:05;;;;;;;2.35;0.47;;;18.30;68.10;;;;;;5061124;28;20108;-76
2022/09/16 11:26:57;;;;;;;2.40;0.20;;;18.20;68.70;;;;;;5057512;28;20064;-76
2022/09/16 11:29:40;;;;;;;3.13;0.32;;;18.40;68.80;;;;;;5053414;28;20106;-76
2022/09/16 11:32:47;;;;;;;1.67;0.10;;;18.50;67.60;;;;;;5056915;28;20106;-76
2022/09/16 11:35:31;;;;;;;2.85;0.20;;;18.60;66.00;;;;;;5066873;28;20369;-76
2022/09/16 11:38:11;;;;;;;4.35;0.20;;;18.90;67.40;;;;;;5058060;28;20037;-76
2022/09/16 11:40:58;;;;;;;5.20;0.20;;;19.00;63.80;;;;;;5055265;28;20043;-76
2022/09/16 11:43:24;;;;;;;3.55;0.10;;;19.20;62.70;;;;;;5060204;28;20048;-76
2022/09/16 11:46:28;;;;;;;2.85;0.20;;;19.20;63.20;;;;;;5071324;28;20052;-75
2022/09/16 11:49:03;;;;;;;2.45;0.30;;;19.30;61.50;;;;;;5068027;28;20067;-75
2022/09/16 11:51:58;;;;;;;3.92;0.47;;;19.40;61.40;;;;;;5071752;28;20033;-75
2022/09/16 11:54:49;;;;;;;4.43;0.25;;;19.50;60.50;;;;;;5053845;28;20032;-76
2022/09/16 11:57:19;;;;;;;2.85;0.60;;;19.40;60.10;;;;;;5056795;28;20360;-76
2022/09/16 11:59:53;;;;;;;4.18;0.45;;;19.20;59.60;;;;;;5066005;28;20431;-75
2022/09/16 12:03:00;;;;;;;4.97;0.30;;;19.00;60.50;;;;;;5057758;28;20032;-77
2022/09/16 12:05:33;;;;;;;5.57;0.30;;;18.90;60.10;;;;;;5071706;28;20107;-77
2022/09/16 12:08:29;;;;;;;2.58;0.35;;;19.00;60.60;;;;;;5062633;28;20060;-77
2022/09/16 12:11:06;;;;;;;6.75;0.50;;;19.30;60.50;;;;;;5055083;28;20435;-77
2022/09/16 12:13:43;;;;;;;4.28;0.50;;;19.60;60.10;;;;;;5068333;28;20067;-76
2022/09/16 12:16:15;;;;;;;2.60;0.30;;;19.70;57.70;;;;;;5073000;28;20387;-77
2022/09/16 12:18:54;;;;;;;3.38;0.40;;;19.80;56.80;;;;;;5067152;28;20021;-77
2022/09/16 12:21:38;;;;;;;6.63;0.50;;;19.80;56.50;;;;;;5057657;28;20037;-77
2022/09/16 12:24:26;;;;;;;2.47;0.50;;;19.90;56.60;;;;;;5064950;28;20415;-77
2022/09/16 12:27:14;;;;;;;5.57;0.50;;;19.90;57.30;;;;;;5056313;28;20033;-76
2022/09/16 12:29:58;;;;;;;5.57;0.40;;;19.90;57.60;;;;;;5071262;28;20090;-77
2022/09/16 12:32:45;;;;;;;3.83;0.30;;;19.90;58.00;;;;;;5063997;28;20029;-77
2022/09/16 12:35:20;;;;;;;6.88;0.30;;;20.00;58.60;;;;;;5052939;28;20032;-77
2022/09/16 12:37:51;;;;;;;2.85;0.40;;;20.00;58.40;;;;;;5062226;28;20102;-77
2022/09/16 12:40:23;;;;;;;4.18;0.43;;;20.00;59.20;;;;;;5057554;28;20033;-77
2022/09/16 12:43:10;;;;;;;1.73;0.30;;;20.00;61.00;;;;;;5062648;28;20054;-77
2022/09/16 12:46:06;;;;;;;4.60;0.50;;;19.90;62.40;;;;;;5066195;28;20441;-77
2022/09/16 12:48:53;;;;;;;4.20;0.63;;;19.80;63.20;;;;;;5063882;28;20021;-77
2022/09/16 12:51:24;;;;;;;3.47;0.28;;;19.60;64.60;;;;;;5059102;28;20036;-77
2022/09/16 12:54:19;;;;;;;5.97;0.43;;;19.50;65.40;;;;;;5056954;28;20061;-77
2022/09/16 12:57:00;;;;;;;6.03;0.60;;;19.40;65.60;;;;;;5054016;28;20074;-77
2022/09/16 12:59:29;;;;;;;3.88;0.50;;;19.50;66.60;;;;;;5055821;28;20117;-76
2022/09/16 13:02:00;;;;;;;4.07;0.73;;;19.70;66.80;;;;;;5065193;28;20033;-77
2022/09/16 13:05:02;;;;;;;5.20;0.43;;;19.90;65.50;;;;;;5069490;28;20029;-77
2022/09/16 13:07:31;;;;;;;4.30;0.40;;;20.00;65.60;;;;;;5034344;28;20047;-77
2022/09/16 13:10:04;;;;;;;4.40;0.40;;;20.00;63.10;;;;;;5073641;28;20090;-78
2022/09/16 13:12:31;;;;;;;5.63;0.50;;;19.90;62.60;;;;;;5072193;28;20020;-77
2022/09/16 13:15:03;;;;;;;4.35;0.40;;;19.90;62.20;;;;;;5072702;28;20052;-77
2022/09/16 13:17:33;;;;;;;4.82;0.50;;;19.80;63.10;;;;;;5052562;28;20125;-78
2022/09/16 13:20:08;;;;;;;4.43;0.70;;;19.70;63.40;;;;;;5068937;28;20025;-76
2022/09/16 13:22:49;;;;;;;7.68;0.95;;;19.60;63.60;;;;;;5066309;28;20496;-77
2022/09/16 13:25:22;;;;;;;9.18;0.47;;;19.60;64.50;;;;;;5064922;28;20029;-77